Main page
METAR-TAF:

METAR-TAF

Airports :

Ahvaz International Airport

Ahvaz, Iran

latitude: 31-20N, longitude: 048-40E, elevation: 20 m

Current weather observation

The report was made 56 minutes ago, at 00:00 UTC
Wind 4 kt from the West/Northwest
Temperature 33°C
Humidity 19%
Pressure 996 hPa
Visibility 10 km or more
no clouds below 1500 m and no cumulonimbus

METAR: OIAW 210000Z 29004KT CAVOK 33/06 Q0996

Time: 05:26 (00:56 UTC)

Forecast

The report was made 1 hour and 56 minutes ago, at 23:00 UTC
Forecast valid from 21 at 00 UTC to 22 at 06 UTC
Wind 8 kt from the West
Visibility: 7000 m
Temporary
from 21 at 00 UTC to 21 at 06 UTC
Visibility: 3000 m

TAF: OIAW 202300Z 2100/2206 28004MPS 7000 NSC TEMPO 2100/2106 3000 FU/HZ

Weather observations and forecasts of more than 4000 airports (METAR and TAF reports).

The available stations are represented by yellow and red dots on the map.

Hover mouse over dot to see the name of the station.

Then click to see weather observations and forecasts.

To change the map : click on the green buttons with a black cross to zoom in, on the green button with a dash to zoom out, or on the green arrows for adjacent maps.


METAR-TAF: